Time;durP1;ratioP1;P1;durP2;ratioP2;P2;SDS_P1;SDS_P2;PMS_P1;PMS_P2;Temp;Humidity;BMP_temperature;BMP_pressure;BME280_temperature;BME280_humidity;BME280_pressure;Samples;Min_cycle;Max_cycle;Signal;HPM_P1;HPM_P2
2023/05/22 00:01:18;;;;;;;7.03;4.90;;;14.30;99.90;;;;;;4987361;28;20588;-73
2023/05/22 00:04:05;;;;;;;10.70;5.20;;;14.30;99.90;;;;;;4987106;28;20201;-72
2023/05/22 00:06:52;;;;;;;8.57;5.30;;;14.30;99.90;;;;;;5046618;28;20759;-72
2023/05/22 00:09:42;;;;;;;10.30;5.00;;;14.20;99.90;;;;;;5048298;28;20202;-70
2023/05/22 00:12:30;;;;;;;7.77;5.33;;;14.20;99.90;;;;;;5046433;28;20191;-71
2023/05/22 00:15:17;;;;;;;11.00;5.90;;;14.20;99.90;;;;;;5049079;28;20242;-71
2023/05/22 00:18:05;;;;;;;11.03;7.10;;;14.20;99.90;;;;;;5049157;28;20250;-71
2023/05/22 00:20:53;;;;;;;9.83;6.10;;;14.20;99.90;;;;;;5047826;28;20683;-72
2023/05/22 00:23:40;;;;;;;10.17;6.17;;;14.10;99.90;;;;;;5049181;28;20199;-73
2023/05/22 00:26:30;;;;;;;7.80;5.23;;;14.10;99.90;;;;;;5035386;28;20577;-72
2023/05/22 00:29:17;;;;;;;10.77;5.17;;;14.00;99.90;;;;;;5049048;28;20670;-70
2023/05/22 00:32:15;;;;;;;7.47;4.90;;;14.00;99.90;;;;;;5048182;28;20358;-73
2023/05/22 00:35:04;;;;;;;7.63;4.43;;;14.00;99.90;;;;;;5049690;28;20218;-72
2023/05/22 00:37:53;;;;;;;7.23;4.93;;;14.00;99.90;;;;;;5049244;28;20191;-72
2023/05/22 00:40:41;;;;;;;7.03;4.60;;;14.00;99.90;;;;;;5048809;28;20206;-72
2023/05/22 00:43:28;;;;;;;6.47;4.50;;;13.90;99.90;;;;;;5051192;28;20299;-72
2023/05/22 00:46:20;;;;;;;8.93;4.80;;;13.90;99.90;;;;;;5052924;28;20202;-71
2023/05/22 00:49:07;;;;;;;9.23;4.80;;;13.80;99.90;;;;;;5053948;28;20237;-70
2023/05/22 00:51:54;;;;;;;6.87;4.47;;;13.80;99.90;;;;;;5038985;28;20237;-75
2023/05/22 00:54:42;;;;;;;7.87;4.83;;;13.80;99.90;;;;;;5053296;28;20376;-71
2023/05/22 00:57:32;;;;;;;8.77;4.47;;;13.80;99.90;;;;;;5051999;28;20253;-73
2023/05/22 01:00:23;;;;;;;7.47;4.43;;;13.70;99.90;;;;;;5052129;28;20198;-74
2023/05/22 01:03:14;;;;;;;7.63;4.53;;;13.70;99.90;;;;;;5037835;28;20201;-74
2023/05/22 01:06:02;;;;;;;6.67;4.97;;;13.60;99.90;;;;;;5051937;28;20199;-74
2023/05/22 01:09:23;;;;;;;7.37;4.57;;;13.60;99.90;;;;;;5052420;28;20287;-74
2023/05/22 01:12:34;;;;;;;6.80;4.17;;;13.60;99.90;;;;;;4994037;28;20212;-74
2023/05/22 01:15:36;;;;;;;7.80;4.50;;;13.50;99.90;;;;;;4990396;28;20221;-73
2023/05/22 01:18:53;;;;;;;7.23;4.47;;;13.50;99.90;;;;;;4973904;28;20214;-74
2023/05/22 01:22:12;;;;;;;9.80;4.83;;;13.40;99.90;;;;;;4976806;28;20208;-74
2023/05/22 01:25:27;;;;;;;8.30;4.53;;;13.40;99.90;;;;;;4991277;28;20271;-75
2023/05/22 01:28:32;;;;;;;9.17;4.63;;;13.30;99.90;;;;;;5010894;28;20949;-73
2023/05/22 01:31:25;;;;;;;7.23;4.60;;;13.30;99.90;;;;;;5010233;28;20656;-75
2023/05/22 01:34:15;;;;;;;8.20;4.70;;;13.30;99.90;;;;;;5009466;28;20219;-74
2023/05/22 01:37:04;;;;;;;7.77;4.43;;;13.20;99.90;;;;;;4996681;28;20617;-74
2023/05/22 01:40:01;;;;;;;7.03;4.50;;;13.20;99.90;;;;;;4996668;28;20700;-74
2023/05/22 01:42:50;;;;;;;7.67;4.83;;;13.20;99.90;;;;;;5010329;28;20208;-73
2023/05/22 01:45:38;;;;;;;7.87;4.83;;;13.20;99.90;;;;;;5008139;28;20220;-74
2023/05/22 01:48:25;;;;;;;7.60;4.60;;;13.10;99.90;;;;;;5021946;28;20567;-75
2023/05/22 01:51:20;;;;;;;7.20;4.73;;;13.10;99.90;;;;;;5052332;28;20191;-73
2023/05/22 01:54:42;;;;;;;8.00;4.63;;;13.10;99.90;;;;;;5050117;28;20195;-75
2023/05/22 01:58:00;;;;;;;9.60;4.90;;;13.10;99.90;;;;;;5027206;28;20202;-74
2023/05/22 02:01:02;;;;;;;8.03;4.77;;;13.00;99.90;;;;;;5037504;28;20203;-75
2023/05/22 02:04:03;;;;;;;8.07;4.87;;;13.00;99.90;;;;;;5038285;28;20237;-76
2023/05/22 02:06:57;;;;;;;8.43;4.63;;;12.90;99.90;;;;;;5051507;28;20198;-76
2023/05/22 02:09:54;;;;;;;8.43;5.07;;;12.90;99.90;;;;;;5050728;28;20207;-74
2023/05/22 02:12:55;;;;;;;7.30;5.00;;;12.90;99.90;;;;;;5044191;28;20218;-74
2023/05/22 02:15:47;;;;;;;8.77;4.80;;;12.90;99.90;;;;;;5037101;28;20688;-74
2023/05/22 02:18:35;;;;;;;9.17;4.83;;;12.80;99.90;;;;;;5050745;28;20715;-73
2023/05/22 02:21:22;;;;;;;7.40;4.83;;;12.80;99.90;;;;;;5052048;28;20276;-75
2023/05/22 02:24:10;;;;;;;7.63;4.53;;;12.80;99.90;;;;;;5036339;28;20344;-74
2023/05/22 02:26:57;;;;;;;10.07;4.90;;;12.80;99.90;;;;;;5051009;28;20195;-75
2023/05/22 02:29:45;;;;;;;8.50;4.80;;;12.70;99.90;;;;;;5050009;28;20236;-75
2023/05/22 02:32:36;;;;;;;8.47;4.90;;;12.70;99.90;;;;;;5050811;28;20198;-74
2023/05/22 02:35:23;;;;;;;7.33;4.93;;;12.70;99.90;;;;;;5050556;28;20226;-73
2023/05/22 02:38:11;;;;;;;9.57;4.60;;;12.60;99.90;;;;;;5050673;28;20195;-77
2023/05/22 02:40:59;;;;;;;8.23;4.80;;;12.60;99.90;;;;;;5051547;28;20924;-77
2023/05/22 02:43:46;;;;;;;8.90;5.07;;;12.60;99.90;;;;;;5051540;28;20202;-71
2023/05/22 02:46:33;;;;;;;6.60;4.67;;;12.50;99.90;;;;;;5050934;28;20198;-73
2023/05/22 02:49:20;;;;;;;6.87;4.73;;;12.50;99.90;;;;;;5050589;28;20214;-76
2023/05/22 02:52:07;;;;;;;6.53;4.63;;;12.50;99.90;;;;;;5051026;28;20195;-73
2023/05/22 02:54:55;;;;;;;7.80;4.87;;;12.50;99.90;;;;;;5049780;28;20680;-73
2023/05/22 02:57:42;;;;;;;7.60;5.07;;;12.50;99.90;;;;;;5051129;28;20210;-76
2023/05/22 03:00:34;;;;;;;10.17;4.97;;;12.50;99.90;;;;;;5034931;28;20197;-74
2023/05/22 03:03:23;;;;;;;7.53;5.00;;;12.50;99.90;;;;;;5050869;28;20194;-75
2023/05/22 03:06:11;;;;;;;8.53;5.10;;;12.40;99.90;;;;;;5046082;28;20242;-76
2023/05/22 03:09:03;;;;;;;8.63;5.40;;;12.40;99.90;;;;;;5036644;28;20207;-75
2023/05/22 03:11:53;;;;;;;9.50;5.40;;;12.50;99.90;;;;;;5050318;28;20225;-75
2023/05/22 03:14:40;;;;;;;8.60;5.60;;;12.40;99.90;;;;;;5050582;28;20647;-76
2023/05/22 03:17:28;;;;;;;9.50;5.67;;;12.40;99.90;;;;;;5050103;28;20292;-76
2023/05/22 03:20:22;;;;;;;9.67;5.77;;;12.40;99.90;;;;;;5049969;28;20244;-75
2023/05/22 03:23:12;;;;;;;11.87;5.53;;;12.40;99.90;;;;;;5049340;28;20191;-76
2023/05/22 03:25:59;;;;;;;8.93;5.80;;;12.60;99.90;;;;;;5050530;28;20206;-77
2023/05/22 03:28:46;;;;;;;11.13;5.83;;;12.40;99.90;;;;;;5049153;28;20195;-77
2023/05/22 03:31:34;;;;;;;8.07;5.20;;;12.50;99.90;;;;;;5049676;28;20205;-75
2023/05/22 03:34:28;;;;;;;9.50;5.53;;;12.50;99.90;;;;;;5048738;28;20194;-75
2023/05/22 03:37:18;;;;;;;8.77;6.10;;;12.60;99.90;;;;;;5049445;28;20191;-76
2023/05/22 03:40:09;;;;;;;9.17;5.80;;;12.60;99.90;;;;;;5050302;28;20653;-76
2023/05/22 03:42:56;;;;;;;8.47;5.40;;;12.70;99.90;;;;;;5049931;28;20195;-75
2023/05/22 03:45:43;;;;;;;8.77;5.50;;;12.70;99.90;;;;;;5050010;28;20324;-75
2023/05/22 03:48:48;;;;;;;10.70;5.70;;;12.90;99.90;;;;;;5050022;28;20295;-77
2023/05/22 03:51:36;;;;;;;9.03;5.63;;;12.80;99.90;;;;;;5049335;28;20204;-76
2023/05/22 03:54:26;;;;;;;8.40;5.73;;;12.90;99.90;;;;;;5051739;28;20202;-80
2023/05/22 03:57:15;;;;;;;8.43;5.70;;;12.90;99.90;;;;;;5051532;28;20218;-81
2023/05/22 04:00:08;;;;;;;8.10;5.07;;;12.90;99.90;;;;;;5051324;28;20199;-80
2023/05/22 04:02:58;;;;;;;9.33;5.47;;;12.90;99.90;;;;;;5049810;28;20199;-78
2023/05/22 04:05:46;;;;;;;7.07;5.03;;;12.90;99.90;;;;;;5050888;28;20276;-79
2023/05/22 04:08:39;;;;;;;8.93;5.30;;;13.00;99.90;;;;;;5036480;28;20195;-79
2023/05/22 04:11:29;;;;;;;10.40;5.50;;;13.00;99.90;;;;;;5035166;28;20197;-77
2023/05/22 04:14:16;;;;;;;8.37;5.60;;;13.00;99.90;;;;;;5050320;28;20558;-79
2023/05/22 04:17:03;;;;;;;11.87;6.07;;;13.10;99.90;;;;;;5049258;28;20222;-79
2023/05/22 04:19:59;;;;;;;8.83;5.30;;;13.20;99.90;;;;;;5053351;28;20191;-78
2023/05/22 04:22:47;;;;;;;11.10;4.90;;;13.20;99.90;;;;;;5039360;28;20226;-78
2023/05/22 04:25:35;;;;;;;8.37;5.63;;;13.20;99.90;;;;;;5053268;28;20737;-78
2023/05/22 04:28:34;;;;;;;8.17;5.33;;;13.30;99.90;;;;;;5053865;28;20209;-76
2023/05/22 04:31:27;;;;;;;10.90;5.70;;;13.30;99.90;;;;;;5052350;28;20584;-79
2023/05/22 04:34:17;;;;;;;9.50;5.70;;;13.40;99.90;;;;;;5055149;28;20202;-80
2023/05/22 04:37:05;;;;;;;10.27;5.73;;;13.40;99.90;;;;;;5054841;28;20647;-79
2023/05/22 04:39:56;;;;;;;10.17;5.50;;;13.50;99.90;;;;;;5054990;28;20195;-79
2023/05/22 04:42:53;;;;;;;9.87;5.60;;;13.60;99.90;;;;;;5040164;28;20198;-80
2023/05/22 04:45:42;;;;;;;9.33;5.70;;;13.60;99.90;;;;;;5030029;28;20258;-79
2023/05/22 04:48:29;;;;;;;8.00;5.57;;;13.70;99.90;;;;;;5033148;28;20191;-79
2023/05/22 04:51:17;;;;;;;9.77;5.20;;;13.80;99.90;;;;;;5032426;28;20552;-71
2023/05/22 04:54:04;;;;;;;8.83;5.00;;;13.80;99.90;;;;;;5033580;28;20199;-81
2023/05/22 04:56:57;;;;;;;8.80;5.33;;;13.90;99.90;;;;;;5047164;28;20231;-79
2023/05/22 04:59:44;;;;;;;11.67;5.53;;;14.00;99.90;;;;;;5050093;28;20706;-81
2023/05/22 05:02:42;;;;;;;7.60;5.00;;;14.10;99.90;;;;;;5020817;28;20976;-81
2023/05/22 05:05:33;;;;;;;9.20;4.67;;;14.20;99.90;;;;;;5035937;28;20196;-81
2023/05/22 05:08:27;;;;;;;7.73;4.90;;;14.30;99.90;;;;;;5033386;28;20210;-79
2023/05/22 05:11:14;;;;;;;9.63;4.90;;;14.40;99.90;;;;;;5015385;28;20191;-80
2023/05/22 05:14:02;;;;;;;8.50;5.30;;;14.50;99.90;;;;;;5032141;28;20213;-80
2023/05/22 05:16:53;;;;;;;9.77;5.20;;;14.60;99.90;;;;;;5033919;28;20340;-76
2023/05/22 05:19:44;;;;;;;10.50;5.20;;;14.70;99.90;;;;;;5032511;28;20290;-80
2023/05/22 05:22:31;;;;;;;10.40;5.10;;;14.90;99.90;;;;;;5033226;28;20671;-77
2023/05/22 05:25:21;;;;;;;8.70;4.50;;;15.00;99.90;;;;;;5032830;28;20203;-78
2023/05/22 05:28:10;;;;;;;8.43;4.80;;;15.10;99.90;;;;;;5026987;28;20188;-79
2023/05/22 05:30:58;;;;;;;7.50;4.77;;;15.20;99.90;;;;;;5038868;28;20282;-75
2023/05/22 05:33:49;;;;;;;10.60;4.87;;;15.30;99.90;;;;;;5032974;28;20200;-82
2023/05/22 05:36:42;;;;;;;10.70;4.73;;;15.50;99.90;;;;;;5032977;28;20818;-79
2023/05/22 05:39:30;;;;;;;7.73;4.27;;;15.70;99.90;;;;;;5031902;28;20278;-73
2023/05/22 05:42:17;;;;;;;8.13;4.53;;;15.80;99.90;;;;;;5031729;28;20202;-72
2023/05/22 05:45:11;;;;;;;10.03;4.47;;;15.90;99.90;;;;;;5032570;28;20581;-81
2023/05/22 05:47:59;;;;;;;9.27;4.50;;;16.10;99.90;;;;;;5018347;28;20244;-71
2023/05/22 05:50:46;;;;;;;8.47;4.27;;;16.20;99.90;;;;;;5036819;28;20218;-79
2023/05/22 05:53:38;;;;;;;8.03;4.17;;;16.40;99.90;;;;;;5031489;28;20195;-79
2023/05/22 05:56:25;;;;;;;8.73;4.30;;;16.60;99.90;;;;;;5018847;28;20591;-73
2023/05/22 05:59:13;;;;;;;9.60;4.20;;;16.70;99.90;;;;;;5032510;28;20192;-77
2023/05/22 06:02:03;;;;;;;7.90;4.10;;;16.80;99.90;;;;;;5028560;28;20615;-82
2023/05/22 06:04:52;;;;;;;9.77;4.40;;;16.90;99.90;;;;;;5033831;28;20330;-83
2023/05/22 06:07:40;;;;;;;10.93;4.07;;;17.10;99.90;;;;;;5032262;28;20191;-79
2023/05/22 06:10:27;;;;;;;8.27;4.43;;;17.20;99.90;;;;;;5030723;28;20195;-82
2023/05/22 06:13:23;;;;;;;10.63;4.10;;;17.30;99.90;;;;;;5017914;28;20207;-77
2023/05/22 06:16:23;;;;;;;7.90;4.00;;;17.40;99.90;;;;;;5023837;28;20700;-82
2023/05/22 06:19:13;;;;;;;7.30;4.03;;;17.50;99.90;;;;;;5032563;28;20790;-79
2023/05/22 06:22:01;;;;;;;9.13;4.30;;;17.70;99.90;;;;;;5031221;28;20317;-80
2023/05/22 06:24:48;;;;;;;8.67;4.20;;;17.70;99.90;;;;;;5031817;28;20226;-81
2023/05/22 06:27:35;;;;;;;9.03;4.10;;;17.80;99.90;;;;;;5030030;28;20277;-77
2023/05/22 06:30:23;;;;;;;9.20;3.67;;;17.90;99.90;;;;;;5030079;28;20318;-83
2023/05/22 06:33:25;;;;;;;7.27;3.30;;;17.90;99.90;;;;;;5027950;28;20226;-80
2023/05/22 06:36:13;;;;;;;9.67;3.63;;;18.00;99.90;;;;;;5034872;28;20214;-79
2023/05/22 06:39:02;;;;;;;11.03;3.90;;;18.10;99.90;;;;;;5031493;28;20204;-85
2023/05/22 06:41:49;;;;;;;8.33;3.57;;;18.20;99.90;;;;;;5037775;28;20206;-81
2023/05/22 06:44:37;;;;;;;8.63;3.60;;;18.20;99.90;;;;;;5035833;28;20227;-79
2023/05/22 06:47:27;;;;;;;9.23;3.70;;;18.20;99.90;;;;;;5001011;28;20196;-83
2023/05/22 06:50:14;;;;;;;7.37;3.40;;;18.30;99.90;;;;;;5027620;28;20216;-87
2023/05/22 06:53:05;;;;;;;6.67;3.37;;;18.40;99.90;;;;;;5010575;28;20211;-86
2023/05/22 06:55:52;;;;;;;8.47;3.20;;;18.40;99.90;;;;;;5025750;28;20342;-74
2023/05/22 06:58:39;;;;;;;6.20;3.50;;;18.40;99.90;;;;;;5036765;28;20305;-74
2023/05/22 07:01:28;;;;;;;9.50;3.20;;;18.50;99.90;;;;;;5022496;28;20222;-79
2023/05/22 07:04:17;;;;;;;7.80;3.40;;;18.60;99.90;;;;;;5035628;28;20199;-74
2023/05/22 07:07:05;;;;;;;6.80;3.27;;;18.70;99.90;;;;;;5040613;28;20206;-73
2023/05/22 07:09:54;;;;;;;7.30;3.20;;;18.90;99.90;;;;;;5031623;28;20205;-75
2023/05/22 07:12:42;;;;;;;8.47;3.70;;;18.90;99.90;;;;;;5020046;28;20195;-76
2023/05/22 07:15:29;;;;;;;5.33;3.07;;;19.00;99.90;;;;;;5041421;28;20202;-75
2023/05/22 07:18:19;;;;;;;6.37;3.37;;;19.20;99.90;;;;;;5018899;28;20215;-81
2023/05/22 07:21:14;;;;;;;4.03;2.83;;;19.30;99.90;;;;;;5027265;28;20285;-76
2023/05/22 07:24:06;;;;;;;8.17;3.17;;;19.60;99.90;;;;;;5050101;28;20213;-77
2023/05/22 07:27:00;;;;;;;3.70;2.57;;;19.60;99.90;;;;;;5037296;28;20199;-81
2023/05/22 07:29:47;;;;;;;5.57;2.97;;;19.80;99.90;;;;;;5036901;28;20203;-77
2023/05/22 07:32:34;;;;;;;6.73;2.83;;;19.90;99.90;;;;;;5021151;28;20204;-81
2023/05/22 07:35:22;;;;;;;6.07;2.70;;;20.00;99.90;;;;;;5027843;28;20203;-71
2023/05/22 07:38:09;;;;;;;4.47;2.50;;;20.00;99.90;;;;;;5027164;28;20199;-76
2023/05/22 07:41:01;;;;;;;6.80;2.40;;;20.00;99.90;;;;;;5048617;28;20191;-79
2023/05/22 07:43:49;;;;;;;6.47;2.50;;;20.10;99.90;;;;;;5027064;28;20653;-75
2023/05/22 07:46:36;;;;;;;3.47;2.33;;;20.30;99.90;;;;;;5028520;28;20421;-77
2023/05/22 07:49:26;;;;;;;5.60;2.50;;;20.40;99.90;;;;;;5028703;28;20337;-78
2023/05/22 07:52:14;;;;;;;3.77;2.30;;;20.60;99.90;;;;;;5030059;28;20203;-78
2023/05/22 07:55:02;;;;;;;4.53;2.27;;;20.80;98.70;;;;;;4993779;28;20243;-76
2023/05/22 07:57:50;;;;;;;5.47;2.40;;;21.00;99.90;;;;;;5016505;28;20227;-74
2023/05/22 08:00:37;;;;;;;3.57;2.23;;;21.00;96.60;;;;;;5014849;28;20202;-73
2023/05/22 08:03:25;;;;;;;4.90;2.40;;;21.10;96.80;;;;;;5029143;28;20554;-75
2023/05/22 08:06:16;;;;;;;9.20;2.60;;;21.20;94.80;;;;;;5029095;28;20310;-73
2023/05/22 08:09:04;;;;;;;5.37;2.50;;;21.40;97.60;;;;;;5015863;28;20200;-76
2023/05/22 08:11:51;;;;;;;2.97;2.20;;;21.50;94.30;;;;;;5044823;28;20269;-75
2023/05/22 08:14:38;;;;;;;6.47;2.53;;;21.80;95.00;;;;;;5043356;28;20188;-82
2023/05/22 08:17:29;;;;;;;8.67;2.63;;;22.00;93.60;;;;;;5028678;28;20223;-85
2023/05/22 08:20:17;;;;;;;4.47;2.57;;;22.30;93.60;;;;;;5030061;28;20214;-75
2023/05/22 08:23:08;;;;;;;6.27;2.70;;;22.40;91.30;;;;;;5031894;28;20243;-72
2023/05/22 08:25:58;;;;;;;5.90;2.80;;;22.60;90.80;;;;;;5026445;28;20664;-73
2023/05/22 08:28:45;;;;;;;5.38;2.63;;;22.70;90.70;;;;;;5028864;28;20699;-72
2023/05/22 08:31:34;;;;;;;5.60;3.00;;;23.10;90.70;;;;;;5043026;28;20653;-73
2023/05/22 08:34:22;;;;;;;6.10;2.78;;;23.80;86.80;;;;;;5040665;28;20272;-79
2023/05/22 08:37:13;;;;;;;4.95;2.90;;;24.20;83.90;;;;;;5026504;28;20706;-80
2023/05/22 08:40:01;;;;;;;4.47;2.63;;;24.70;83.40;;;;;;5049277;28;20293;-81
2023/05/22 08:42:53;;;;;;;5.65;2.80;;;25.20;81.50;;;;;;5049575;28;20230;-79
2023/05/22 08:45:42;;;;;;;4.05;2.90;;;25.60;76.80;;;;;;5036231;28;20701;-82
2023/05/22 08:48:33;;;;;;;5.63;2.60;;;25.80;77.80;;;;;;5026440;28;20257;-85
2023/05/22 08:51:25;;;;;;;3.95;2.53;;;26.20;78.90;;;;;;5023884;28;20195;-82
2023/05/22 08:54:15;;;;;;;4.97;2.40;;;26.50;75.30;;;;;;5044750;28;20196;-83
2023/05/22 08:57:04;;;;;;;5.50;2.50;;;26.90;72.60;;;;;;5045311;28;20239;-81
2023/05/22 08:59:51;;;;;;;4.00;2.40;;;27.30;71.70;;;;;;5033754;28;20269;-86
2023/05/22 09:02:40;;;;;;;5.13;2.50;;;27.20;67.10;;;;;;5034328;28;20688;-80
2023/05/22 09:05:28;;;;;;;5.93;2.65;;;27.30;66.70;;;;;;5025976;28;20208;-87
2023/05/22 09:08:15;;;;;;;4.40;2.55;;;27.30;65.40;;;;;;5034538;28;20207;-84
2023/05/22 09:11:09;;;;;;;6.00;3.00;;;27.10;63.90;;;;;;5039586;28;20672;-86
2023/05/22 09:14:07;;;;;;;5.38;2.58;;;26.70;65.10;;;;;;5038705;28;20203;-83
2023/05/22 09:16:55;;;;;;;7.55;2.67;;;26.60;65.90;;;;;;5038355;28;20207;-77
2023/05/22 09:19:44;;;;;;;5.70;2.80;;;26.60;65.20;;;;;;5048109;28;20253;-76
2023/05/22 09:22:38;;;;;;;6.55;2.67;;;26.80;66.30;;;;;;5030930;28;20208;-76
2023/05/22 09:25:26;;;;;;;4.78;2.50;;;27.10;67.10;;;;;;5039492;28;20199;-75
2023/05/22 09:28:14;;;;;;;4.03;2.90;;;27.20;63.40;;;;;;5050779;28;20237;-76
2023/05/22 09:31:02;;;;;;;5.97;2.83;;;27.10;63.50;;;;;;5043419;28;20406;-78
2023/05/22 09:33:50;;;;;;;4.38;2.90;;;27.00;65.10;;;;;;5029302;28;20214;-76
2023/05/22 09:36:38;;;;;;;4.70;2.80;;;26.90;64.90;;;;;;5038152;28;20218;-76
2023/05/22 09:39:38;;;;;;;5.50;2.60;;;26.80;64.90;;;;;;5032754;28;20235;-76
2023/05/22 09:42:27;;;;;;;10.00;2.80;;;26.50;60.40;;;;;;5019609;28;20202;-77
2023/05/22 09:45:21;;;;;;;4.25;2.72;;;26.30;63.20;;;;;;5051599;28;20431;-75
2023/05/22 09:48:09;;;;;;;5.82;2.70;;;26.20;65.70;;;;;;5051071;28;20844;-77
2023/05/22 09:50:58;;;;;;;5.50;2.85;;;26.30;65.30;;;;;;5020103;28;20215;-76
2023/05/22 09:53:47;;;;;;;5.60;2.60;;;26.30;60.80;;;;;;5025009;28;20229;-77
2023/05/22 09:56:38;;;;;;;5.13;2.78;;;26.10;60.40;;;;;;5020314;28;20265;-75
2023/05/22 09:59:28;;;;;;;4.47;2.60;;;26.00;61.30;;;;;;5029719;28;20195;-76
2023/05/22 10:02:17;;;;;;;7.65;2.88;;;26.00;60.60;;;;;;5030923;28;20203;-80
2023/05/22 10:05:09;;;;;;;5.03;2.60;;;25.90;61.60;;;;;;5029108;28;20204;-77
2023/05/22 10:08:09;;;;;;;3.97;2.70;;;25.60;61.90;;;;;;5031174;28;20278;-78
2023/05/22 10:10:57;;;;;;;4.43;2.85;;;25.50;61.40;;;;;;5042064;28;20195;-79
2023/05/22 10:13:46;;;;;;;5.47;2.80;;;25.40;62.40;;;;;;5030026;28;20195;-79
2023/05/22 10:16:37;;;;;;;5.75;2.55;;;25.40;66.00;;;;;;5039854;28;20240;-77
2023/05/22 10:19:29;;;;;;;5.70;2.47;;;25.20;64.50;;;;;;5035681;28;20685;-77
2023/05/22 10:22:20;;;;;;;4.65;2.67;;;25.20;63.20;;;;;;5042102;28;20195;-76
2023/05/22 10:25:10;;;;;;;4.82;2.47;;;25.20;63.20;;;;;;5035227;28;20204;-80
2023/05/22 10:27:58;;;;;;;6.43;2.63;;;25.20;64.70;;;;;;5033668;28;20210;-73
2023/05/22 10:30:55;;;;;;;4.57;2.78;;;25.30;64.60;;;;;;5050830;28;20228;-80
2023/05/22 10:33:55;;;;;;;4.97;2.40;;;25.40;65.40;;;;;;5026757;28;20204;-79
2023/05/22 10:36:51;;;;;;;3.70;2.38;;;25.30;65.20;;;;;;5037905;28;20233;-77
2023/05/22 10:39:57;;;;;;;3.83;2.42;;;25.30;63.90;;;;;;5051037;28;20214;-79
2023/05/22 10:42:44;;;;;;;5.32;2.70;;;25.40;67.20;;;;;;5050690;28;20229;-78
2023/05/22 10:45:35;;;;;;;5.05;2.47;;;25.30;67.10;;;;;;5051478;28;20273;-79
2023/05/22 10:48:23;;;;;;;8.75;2.42;;;25.30;64.30;;;;;;5049301;28;20194;-76
2023/05/22 10:51:19;;;;;;;5.00;2.38;;;25.20;63.90;;;;;;5050917;28;20658;-82
2023/05/22 10:54:07;;;;;;;4.65;2.28;;;25.30;64.30;;;;;;5045161;28;20295;-80
2023/05/22 10:57:09;;;;;;;3.70;2.47;;;25.50;65.10;;;;;;5044526;28;20234;-80
2023/05/22 11:00:06;;;;;;;3.88;2.40;;;25.70;63.20;;;;;;5026445;28;20202;-75
2023/05/22 11:03:07;;;;;;;2.53;2.17;;;25.80;61.50;;;;;;5009873;28;20818;-78
2023/05/22 11:06:42;;;;;;;3.80;2.30;;;26.00;61.50;;;;;;5028270;28;20206;-82
2023/05/22 11:09:44;;;;;;;4.07;1.90;;;26.20;62.40;;;;;;5014006;28;20192;-78
2023/05/22 11:12:32;;;;;;;5.07;2.40;;;26.40;58.50;;;;;;5026042;28;20277;-76
2023/05/22 11:15:30;;;;;;;4.05;2.10;;;26.30;57.80;;;;;;5024809;28;20200;-78
2023/05/22 11:18:18;;;;;;;3.30;2.20;;;26.50;58.60;;;;;;5026904;28;20218;-77
2023/05/22 11:20:46;;;;;;;4.28;2.20;;;26.90;57.60;;;;;;5026012;28;20247;-77
2023/05/22 11:23:13;;;;;;;4.05;2.03;;;27.40;58.90;;;;;;5030674;28;20200;-77
2023/05/22 11:25:41;;;;;;;2.30;1.88;;;28.10;59.10;;;;;;5010044;28;20197;-74
2023/05/22 11:28:09;;;;;;;4.03;2.08;;;28.70;56.90;;;;;;5026646;28;20674;-75
2023/05/22 11:30:37;;;;;;;2.97;2.13;;;29.00;54.70;;;;;;5037306;28;20256;-77
2023/05/22 11:33:05;;;;;;;3.08;2.20;;;29.40;55.00;;;;;;5023644;28;20203;-76
2023/05/22 11:35:33;;;;;;;2.53;2.05;;;29.50;52.60;;;;;;5011643;28;20399;-77
2023/05/22 11:38:03;;;;;;;3.38;2.22;;;29.30;54.70;;;;;;5011766;28;20234;-77
2023/05/22 11:40:30;;;;;;;4.28;2.15;;;29.50;52.60;;;;;;5015475;28;20192;-77
2023/05/22 11:42:58;;;;;;;4.32;1.92;;;29.50;51.70;;;;;;5014981;28;20204;-79
2023/05/22 11:45:26;;;;;;;4.15;2.20;;;29.60;51.60;;;;;;5027729;28;20219;-77
2023/05/22 11:47:53;;;;;;;2.88;2.00;;;29.80;50.90;;;;;;5009044;28;20253;-75
2023/05/22 11:50:20;;;;;;;2.97;2.15;;;29.90;51.40;;;;;;5023325;28;20180;-76
2023/05/22 11:53:07;;;;;;;2.70;2.00;;;29.90;51.50;;;;;;5030365;28;20227;-77
2023/05/22 11:55:34;;;;;;;4.65;2.22;;;29.80;52.60;;;;;;5010646;28;20217;-74
2023/05/22 11:58:01;;;;;;;3.35;2.10;;;29.70;51.60;;;;;;5004250;28;20628;-75
2023/05/22 12:00:30;;;;;;;3.85;2.10;;;29.60;50.50;;;;;;5011790;28;20187;-76
2023/05/22 12:02:57;;;;;;;2.35;2.00;;;29.30;51.00;;;;;;5029781;28;20230;-76
2023/05/22 12:05:26;;;;;;;3.63;2.20;;;29.30;50.30;;;;;;5012826;28;20188;-78
2023/05/22 12:07:55;;;;;;;5.72;2.40;;;29.30;51.60;;;;;;5009811;28;20198;-63
2023/05/22 12:10:23;;;;;;;2.85;2.20;;;29.40;56.70;;;;;;5013839;28;20196;-79
2023/05/22 12:12:50;;;;;;;2.80;2.33;;;29.40;55.00;;;;;;4996583;28;20253;-77
2023/05/22 12:15:21;;;;;;;2.60;2.10;;;29.50;59.50;;;;;;5012133;28;20200;-81
2023/05/22 12:17:53;;;;;;;3.08;2.13;;;29.90;59.80;;;;;;5023573;28;20570;-83
2023/05/22 12:20:20;;;;;;;2.40;2.03;;;30.10;58.40;;;;;;5011808;28;20687;-81
2023/05/22 12:22:48;;;;;;;4.68;2.28;;;30.00;56.00;;;;;;5013272;28;20196;-80
2023/05/22 12:25:16;;;;;;;3.70;2.20;;;30.00;57.60;;;;;;5038026;28;20229;-79
2023/05/22 12:27:44;;;;;;;2.58;2.00;;;29.70;55.10;;;;;;5011292;28;20204;-82
2023/05/22 12:30:12;;;;;;;2.67;1.95;;;29.20;54.20;;;;;;4998666;28;20200;-82
2023/05/22 12:32:40;;;;;;;4.85;2.33;;;29.00;54.20;;;;;;5031307;28;20270;-84
2023/05/22 12:35:14;;;;;;;4.30;2.17;;;28.60;53.80;;;;;;5016919;28;20242;-86
2023/05/22 12:37:50;;;;;;;3.20;2.30;;;28.50;54.10;;;;;;4999140;28;20219;-88
2023/05/22 12:40:18;;;;;;;2.88;2.17;;;28.10;55.30;;;;;;5018851;28;20199;-82
2023/05/22 12:42:46;;;;;;;3.92;2.10;;;27.80;56.60;;;;;;5019027;28;20241;-84
2023/05/22 12:45:16;;;;;;;3.10;2.30;;;27.90;57.90;;;;;;5030746;28;20284;-82
2023/05/22 12:47:44;;;;;;;2.85;2.17;;;28.10;57.20;;;;;;5030282;28;20625;-82
2023/05/22 12:50:11;;;;;;;3.72;2.13;;;28.40;58.20;;;;;;5036365;28;20564;-87
2023/05/22 12:52:38;;;;;;;3.10;2.10;;;28.40;53.50;;;;;;5028114;28;20652;-82
2023/05/22 12:55:06;;;;;;;3.28;2.60;;;28.30;53.90;;;;;;5017666;28;20195;-81
2023/05/22 12:57:33;;;;;;;3.88;2.42;;;28.30;57.70;;;;;;5018700;28;20224;-80
2023/05/22 13:00:00;;;;;;;2.97;2.28;;;28.50;56.00;;;;;;5023413;28;20195;-82
2023/05/22 13:02:27;;;;;;;7.57;2.38;;;28.60;55.60;;;;;;5040900;28;20219;-76
2023/05/22 13:04:54;;;;;;;3.95;2.13;;;28.70;55.10;;;;;;5030263;28;20214;-83
2023/05/22 13:07:21;;;;;;;4.25;2.55;;;29.20;55.50;;;;;;5015976;28;20603;-84
2023/05/22 13:09:48;;;;;;;3.63;2.35;;;29.30;53.20;;;;;;5022129;28;20915;-83
2023/05/22 13:12:15;;;;;;;3.67;2.25;;;29.00;53.20;;;;;;5035648;28;20188;-84
2023/05/22 13:14:42;;;;;;;5.60;2.28;;;29.00;54.00;;;;;;5019940;28;20199;-81
2023/05/22 13:17:10;;;;;;;3.00;2.30;;;29.10;53.70;;;;;;4998429;28;20556;-84
2023/05/22 13:19:37;;;;;;;3.80;2.00;;;29.30;53.00;;;;;;4998681;28;20298;-81
2023/05/22 13:22:06;;;;;;;2.70;1.80;;;29.50;52.50;;;;;;4998058;28;20208;-83
2023/05/22 13:24:33;;;;;;;3.42;2.22;;;29.80;53.00;;;;;;5015956;28;20307;-85
2023/05/22 13:27:00;;;;;;;2.65;2.20;;;29.80;52.70;;;;;;4997822;28;20192;-84
2023/05/22 13:29:27;;;;;;;3.88;2.30;;;29.60;50.90;;;;;;5016482;28;20196;-85
2023/05/22 13:31:54;;;;;;;3.63;2.25;;;29.20;52.50;;;;;;5016507;28;20192;-90
2023/05/22 13:34:21;;;;;;;3.28;2.20;;;29.40;52.10;;;;;;4982538;28;20200;-85
2023/05/22 13:36:49;;;;;;;4.05;2.70;;;29.60;52.10;;;;;;5000897;28;20196;-88
2023/05/22 13:39:16;;;;;;;4.55;2.30;;;29.60;51.80;;;;;;5015927;28;20208;-85
2023/05/22 13:41:43;;;;;;;4.75;2.28;;;29.70;52.80;;;;;;5015857;28;20666;-84
2023/05/22 13:44:11;;;;;;;4.03;2.28;;;29.40;50.80;;;;;;5017771;28;20235;-83
2023/05/22 13:46:38;;;;;;;3.17;2.35;;;29.40;52.70;;;;;;5000748;28;20192;-83
2023/05/22 13:49:07;;;;;;;4.75;2.30;;;29.20;51.40;;;;;;4998097;28;20546;-80
2023/05/22 13:51:34;;;;;;;6.72;2.53;;;28.70;53.10;;;;;;5012499;28;20700;-87
2023/05/22 13:54:02;;;;;;;8.85;2.30;;;28.50;51.90;;;;;;4997859;28;20287;-84
2023/05/22 13:56:29;;;;;;;8.05;3.00;;;28.70;52.40;;;;;;4997510;28;20705;-87
2023/05/22 13:58:57;;;;;;;7.75;2.53;;;29.10;52.60;;;;;;4981874;28;20220;-85
2023/05/22 14:01:59;;;;;;;4.00;2.53;;;29.60;52.50;;;;;;4998781;28;20223;-89
2023/05/22 14:04:26;;;;;;;3.60;1.90;;;30.00;49.90;;;;;;5019335;28;20544;-86
2023/05/22 14:06:53;;;;;;;3.85;2.25;;;29.70;50.70;;;;;;5035988;23;20244;-87
2023/05/22 14:09:23;;;;;;;4.43;2.30;;;29.60;51.20;;;;;;5056210;28;20198;-83
2023/05/22 14:11:50;;;;;;;3.92;2.30;;;29.70;50.40;;;;;;5039553;28;20201;-84
2023/05/22 14:14:22;;;;;;;5.00;2.38;;;29.90;51.60;;;;;;5074252;28;20206;-81
2023/05/22 14:16:53;;;;;;;5.03;2.33;;;29.70;50.40;;;;;;5056019;28;20289;-79
2023/05/22 14:19:25;;;;;;;3.28;2.42;;;29.90;49.90;;;;;;5055737;28;20217;-82
2023/05/22 14:21:53;;;;;;;8.63;2.50;;;30.20;50.50;;;;;;5056608;28;20198;-77